createdAt,value
2023-02-03T00:00:38.251Z,9.45
2023-02-03T00:03:08.112Z,9.48
2023-02-03T00:05:36.681Z,8.73
2023-02-03T00:08:05.613Z,8.25
2023-02-03T00:10:36.357Z,8.48
2023-02-03T00:13:04.156Z,7.85
2023-02-03T00:15:32.045Z,7.28
2023-02-03T00:17:59.927Z,6.40
2023-02-03T00:20:31.166Z,7.28
2023-02-03T00:23:06.652Z,7.30
2023-02-03T00:25:35.949Z,7.28
2023-02-03T00:28:06.065Z,7.28
2023-02-03T00:30:36.200Z,6.88
2023-02-03T00:33:04.572Z,6.57
2023-02-03T00:35:33.854Z,7.05
2023-02-03T00:38:01.821Z,6.82
2023-02-03T00:40:30.130Z,5.68
2023-02-03T00:42:57.908Z,6.05
2023-02-03T00:45:27.811Z,5.50
2023-02-03T00:47:56.296Z,6.20
2023-02-03T00:50:25.408Z,6.93
2023-02-03T00:52:54.866Z,7.68
2023-02-03T00:55:22.680Z,6.53
2023-02-03T00:57:50.732Z,7.32
2023-02-03T01:00:20.109Z,7.05
2023-02-03T01:02:48.459Z,7.57
2023-02-03T01:05:18.080Z,8.30
2023-02-03T01:07:48.851Z,9.30
2023-02-03T01:10:17.267Z,11.05
2023-02-03T01:12:45.921Z,11.02
2023-02-03T01:15:19.179Z,13.10
2023-02-03T01:17:47.150Z,17.23
2023-02-03T01:20:17.033Z,16.58
2023-02-03T01:22:44.965Z,16.38
2023-02-03T01:25:12.875Z,14.50
2023-02-03T01:27:40.916Z,13.80
2023-02-03T01:30:09.435Z,10.07
2023-02-03T01:32:39.913Z,9.43
2023-02-03T01:35:08.402Z,8.13
2023-02-03T01:37:41.496Z,8.13
2023-02-03T01:40:14.257Z,6.68
2023-02-03T01:42:42.963Z,8.15
2023-02-03T01:45:13.212Z,7.38
2023-02-03T01:47:51.387Z,7.93
2023-02-03T01:50:46.018Z,7.80
2023-02-03T01:53:13.862Z,8.70
2023-02-03T01:55:43.352Z,9.05
2023-02-03T01:58:26.513Z,9.00
2023-02-03T02:00:58.241Z,6.85
2023-02-03T02:03:35.226Z,7.28
2023-02-03T02:06:07.035Z,7.07
2023-02-03T02:08:36.188Z,7.25
2023-02-03T02:11:04.409Z,6.97
2023-02-03T02:13:35.131Z,7.35
2023-02-03T02:16:26.098Z,7.60
2023-02-03T02:19:00.441Z,7.15
2023-02-03T02:21:39.731Z,6.68
2023-02-03T02:24:22.755Z,7.70
2023-02-03T02:27:06.077Z,8.10
2023-02-03T02:29:40.422Z,8.63
2023-02-03T02:32:10.258Z,8.43
2023-02-03T02:34:54.138Z,7.75
2023-02-03T02:37:48.255Z,8.15
2023-02-03T02:40:53.360Z,8.43
2023-02-03T02:43:28.120Z,7.85
2023-02-03T02:46:25.629Z,8.05
2023-02-03T02:49:04.993Z,9.00
2023-02-03T02:51:33.177Z,8.68
2023-02-03T02:54:05.795Z,8.77
2023-02-03T02:56:35.451Z,9.98
2023-02-03T02:59:04.698Z,8.73
2023-02-03T03:01:33.402Z,9.05
2023-02-03T03:04:02.351Z,11.23
2023-02-03T03:06:38.523Z,11.70
2023-02-03T03:09:28.122Z,11.50
2023-02-03T03:12:00.692Z,10.35
2023-02-03T03:14:30.743Z,9.68
2023-02-03T03:17:03.357Z,10.27
2023-02-03T03:19:42.968Z,10.32
2023-02-03T03:22:12.237Z,11.45
2023-02-03T03:24:43.861Z,10.35
2023-02-03T03:27:19.748Z,10.63
2023-02-03T03:29:50.624Z,8.93
2023-02-03T03:32:19.183Z,9.80
2023-02-03T03:35:08.073Z,8.90
2023-02-03T03:37:51.758Z,7.88
2023-02-03T03:40:21.177Z,9.02
2023-02-03T03:42:53.566Z,7.95
2023-02-03T03:45:49.607Z,9.32
2023-02-03T03:48:27.526Z,8.35
2023-02-03T03:51:14.327Z,10.02
2023-02-03T03:56:34.274Z,9.63
2023-02-03T03:59:04.004Z,8.85
2023-02-03T04:01:32.929Z,6.68
2023-02-03T04:04:04.289Z,6.80
2023-02-03T04:06:37.939Z,6.18
2023-02-03T04:09:06.180Z,6.25
2023-02-03T04:11:55.433Z,6.85
2023-02-03T04:14:25.177Z,6.13
2023-02-03T04:16:54.718Z,6.80
2023-02-03T04:19:24.271Z,6.38
2023-02-03T04:21:53.743Z,5.75
2023-02-03T04:24:21.592Z,5.57
2023-02-03T04:26:51.346Z,5.50
2023-02-03T04:29:20.432Z,6.00
2023-02-03T04:31:49.884Z,4.93
2023-02-03T04:34:19.089Z,5.45
2023-02-03T04:36:50.628Z,4.75
2023-02-03T04:39:18.511Z,5.20
2023-02-03T04:41:47.463Z,5.05
2023-02-03T04:44:15.504Z,4.57
2023-02-03T04:46:47.397Z,6.80
2023-02-03T04:49:17.872Z,6.53
2023-02-03T04:51:45.848Z,7.07
2023-02-03T04:54:14.503Z,6.43
2023-02-03T04:56:44.314Z,6.50
2023-02-03T04:59:14.699Z,7.32
2023-02-03T05:01:42.920Z,7.85
2023-02-03T05:04:14.739Z,6.78
2023-02-03T05:07:15.785Z,7.25
2023-02-03T05:09:43.932Z,7.60
2023-02-03T05:12:14.419Z,7.20
2023-02-03T05:14:42.653Z,7.53
2023-02-03T05:17:10.778Z,7.95
2023-02-03T05:19:38.719Z,7.72
2023-02-03T05:22:07.102Z,9.88
2023-02-03T05:24:35.418Z,10.43
2023-02-03T05:27:03.431Z,11.48
2023-02-03T05:29:31.730Z,9.45
2023-02-03T05:31:59.653Z,9.13
2023-02-03T05:34:27.554Z,10.57
2023-02-03T05:36:55.445Z,9.02
2023-02-03T05:39:23.347Z,10.27
2023-02-03T05:41:56.442Z,10.25
2023-02-03T05:44:28.620Z,9.60
2023-02-03T05:46:58.274Z,10.10
2023-02-03T05:49:27.775Z,9.25
2023-02-03T05:51:56.606Z,8.40
2023-02-03T05:54:24.452Z,8.85
2023-02-03T05:56:52.186Z,7.32
2023-02-03T05:59:21.492Z,7.80
2023-02-03T06:01:49.643Z,7.43
2023-02-03T06:04:23.587Z,7.68
2023-02-03T06:06:51.930Z,6.88
2023-02-03T06:09:23.309Z,6.82
2023-02-03T06:11:51.170Z,6.50
2023-02-03T06:14:19.254Z,6.90
2023-02-03T06:16:47.398Z,6.50
2023-02-03T06:19:16.475Z,6.82
2023-02-03T06:21:44.994Z,7.93
2023-02-03T06:24:15.527Z,8.55
2023-02-03T06:26:46.012Z,9.05
2023-02-03T06:29:13.920Z,8.20
2023-02-03T06:31:46.616Z,7.60
2023-02-03T06:34:14.795Z,9.00
2023-02-03T06:36:43.273Z,8.00
2023-02-03T06:39:12.356Z,9.18
2023-02-03T06:41:41.288Z,7.45
2023-02-03T06:44:09.844Z,7.63
2023-02-03T06:46:40.929Z,6.43
2023-02-03T06:49:09.185Z,7.25
2023-02-03T06:51:37.860Z,7.15
2023-02-03T06:54:07.989Z,6.90
2023-02-03T06:56:38.848Z,6.13
2023-02-03T06:59:08.177Z,6.70
2023-02-03T07:01:40.150Z,5.82
2023-02-03T07:04:11.029Z,6.35
2023-02-03T07:06:39.343Z,6.43
2023-02-03T07:09:07.840Z,7.47
2023-02-03T07:11:41.676Z,6.85
2023-02-03T07:14:09.619Z,8.07
2023-02-03T07:16:38.489Z,7.13
2023-02-03T07:19:06.721Z,7.40
2023-02-03T07:21:35.346Z,7.72
2023-02-03T07:24:05.936Z,8.48
2023-02-03T07:26:34.651Z,8.52
2023-02-03T07:29:06.521Z,8.18
2023-02-03T07:31:38.427Z,7.95
2023-02-03T07:34:06.599Z,8.25
2023-02-03T07:36:34.882Z,8.13
2023-02-03T07:39:03.152Z,7.55
2023-02-03T07:41:33.894Z,6.57
2023-02-03T07:44:02.526Z,6.80
2023-02-03T07:46:30.535Z,8.02
2023-02-03T07:49:06.415Z,9.07
2023-02-03T07:51:36.777Z,8.30
2023-02-03T07:54:06.707Z,7.60
2023-02-03T07:56:37.736Z,6.50
2023-02-03T07:59:14.333Z,5.68
2023-02-03T08:01:42.303Z,6.05
2023-02-03T08:04:15.916Z,5.35
2023-02-03T08:06:44.530Z,5.03
2023-02-03T08:09:12.839Z,5.35
2023-02-03T08:11:41.346Z,4.95
2023-02-03T08:14:09.187Z,5.45
2023-02-03T08:16:38.697Z,5.85
2023-02-03T08:19:06.637Z,5.88
2023-02-03T08:21:34.936Z,6.63
2023-02-03T08:24:05.059Z,6.80
2023-02-03T08:26:33.047Z,5.95
2023-02-03T08:29:00.807Z,4.55
2023-02-03T08:31:29.378Z,5.45
2023-02-03T08:33:57.809Z,5.20
2023-02-03T08:36:25.877Z,4.95
2023-02-03T08:38:55.816Z,5.32
2023-02-03T08:41:23.938Z,5.40
2023-02-03T08:43:56.155Z,5.95
2023-02-03T08:46:24.163Z,5.53
2023-02-03T08:48:53.083Z,5.30
2023-02-03T08:51:21.325Z,5.50
2023-02-03T08:53:49.216Z,5.07
2023-02-03T08:56:17.451Z,5.40
2023-02-03T08:58:45.543Z,4.47
2023-02-03T09:01:15.010Z,6.45
2023-02-03T09:03:43.133Z,6.82
2023-02-03T09:06:16.932Z,7.03
2023-02-03T09:08:46.474Z,5.43
2023-02-03T09:11:16.222Z,5.47
2023-02-03T09:13:48.682Z,6.28
2023-02-03T09:16:18.343Z,5.35
2023-02-03T09:18:46.319Z,5.63
2023-02-03T09:21:23.909Z,6.13
2023-02-03T09:24:04.093Z,6.55
2023-02-03T09:26:36.065Z,6.15
2023-02-03T09:29:08.289Z,6.13
2023-02-03T09:31:37.873Z,6.20
2023-02-03T09:34:06.257Z,5.85
2023-02-03T09:36:36.407Z,6.28
2023-02-03T09:39:04.938Z,5.45
2023-02-03T09:42:01.089Z,5.47
2023-02-03T09:44:38.736Z,5.72
2023-02-03T09:47:19.022Z,6.07
2023-02-03T09:49:58.253Z,4.90
2023-02-03T09:52:28.063Z,5.80
2023-02-03T09:55:12.321Z,5.97
2023-02-03T09:58:04.681Z,5.70
2023-02-03T10:00:38.835Z,5.97
2023-02-03T10:03:38.599Z,5.97
2023-02-03T10:06:37.000Z,5.82
2023-02-03T10:09:32.687Z,5.95
2023-02-03T10:12:14.432Z,5.88
2023-02-03T10:15:15.435Z,7.18
2023-02-03T10:17:48.846Z,5.60
2023-02-03T10:20:45.516Z,6.57
2023-02-03T10:23:38.098Z,5.80
2023-02-03T10:26:30.909Z,4.47
2023-02-03T10:29:21.993Z,5.05
2023-02-03T10:31:50.124Z,3.97
2023-02-03T10:34:20.027Z,5.60
2023-02-03T10:36:56.204Z,5.05
2023-02-03T10:39:48.887Z,5.03
2023-02-03T10:42:20.200Z,4.95
2023-02-03T10:44:57.401Z,4.47
2023-02-03T10:47:39.947Z,4.65
2023-02-03T10:50:18.549Z,4.32
2023-02-03T10:52:46.704Z,3.90
2023-02-03T10:55:33.247Z,4.15
2023-02-03T10:58:10.912Z,4.03
2023-02-03T11:00:40.717Z,3.83
2023-02-03T11:03:22.202Z,4.13
2023-02-03T11:06:10.133Z,4.32
2023-02-03T11:08:40.793Z,4.45
2023-02-03T11:11:33.513Z,4.45
2023-02-03T11:14:08.176Z,3.72
2023-02-03T11:16:38.478Z,4.78
2023-02-03T11:19:17.843Z,4.38
2023-02-03T11:21:48.388Z,4.05
2023-02-03T11:24:33.204Z,4.80
2023-02-03T11:27:43.840Z,4.65
2023-02-03T11:30:49.796Z,4.05
2023-02-03T11:33:20.444Z,4.25
2023-02-03T11:36:03.516Z,3.70
2023-02-03T11:38:40.668Z,4.03
2023-02-03T11:41:23.940Z,5.50
2023-02-03T11:43:52.528Z,5.95
2023-02-03T11:46:20.421Z,6.40
2023-02-03T11:49:18.346Z,5.30
2023-02-03T11:52:01.040Z,6.43
2023-02-03T11:54:43.803Z,6.18
2023-02-03T11:57:14.922Z,6.20
2023-02-03T12:00:02.612Z,4.78
2023-02-03T12:02:56.634Z,4.72
2023-02-03T12:05:46.178Z,4.28
2023-02-03T12:08:25.815Z,3.72
2023-02-03T12:11:03.638Z,4.50
2023-02-03T12:13:59.735Z,4.57
2023-02-03T12:16:34.115Z,4.10
2023-02-03T12:19:13.221Z,7.50
2023-02-03T12:21:45.223Z,7.82
2023-02-03T12:24:16.527Z,15.15
2023-02-03T12:27:16.139Z,16.40
2023-02-03T12:29:53.663Z,15.15
2023-02-03T12:33:09.637Z,8.45
2023-02-03T12:36:11.376Z,6.88
2023-02-03T12:38:44.914Z,5.50
2023-02-03T12:42:06.587Z,6.18
2023-02-03T12:44:44.951Z,5.25
2023-02-03T12:47:22.312Z,5.90
2023-02-03T12:50:03.554Z,6.47
2023-02-03T12:52:41.329Z,5.07
2023-02-03T12:55:55.949Z,5.38
2023-02-03T12:58:27.120Z,7.65
2023-02-03T13:01:07.791Z,6.88
2023-02-03T13:04:03.149Z,7.85
2023-02-03T13:07:00.638Z,8.10
2023-02-03T13:09:32.229Z,8.20
2023-02-03T13:12:14.065Z,8.10
2023-02-03T13:15:02.253Z,7.95
2023-02-03T13:17:40.281Z,8.15
2023-02-03T13:20:36.257Z,9.15
2023-02-03T13:23:12.010Z,8.15
2023-02-03T13:26:04.933Z,8.50
2023-02-03T13:29:00.751Z,8.90
2023-02-03T13:31:35.229Z,7.38
2023-02-03T13:34:32.579Z,6.10
2023-02-03T13:37:36.983Z,6.22
2023-02-03T13:40:43.073Z,6.32
2023-02-03T13:43:36.020Z,6.55
2023-02-03T13:46:21.361Z,6.38
2023-02-03T13:49:14.218Z,8.90
2023-02-03T13:51:49.884Z,7.35
2023-02-03T13:54:46.810Z,7.95
2023-02-03T13:57:45.363Z,7.88
2023-02-03T14:00:44.660Z,7.15
2023-02-03T14:03:24.728Z,7.38
2023-02-03T14:05:58.579Z,6.38
2023-02-03T14:08:29.998Z,5.70
2023-02-03T14:11:48.682Z,4.78
2023-02-03T14:14:17.932Z,5.22
2023-02-03T14:16:57.100Z,6.90
2023-02-03T14:19:30.632Z,5.45
2023-02-03T14:22:05.557Z,6.43
2023-02-03T14:24:41.111Z,6.85
2023-02-03T14:27:23.956Z,6.93
2023-02-03T14:30:09.544Z,7.32
2023-02-03T14:32:56.431Z,6.43
2023-02-03T14:35:32.905Z,7.13
2023-02-03T14:38:05.650Z,6.25
2023-02-03T14:40:43.306Z,7.57
2023-02-03T14:43:20.655Z,5.30
2023-02-03T14:46:14.724Z,5.55
2023-02-03T14:49:00.776Z,7.28
2023-02-03T14:51:45.181Z,7.47
2023-02-03T14:54:25.482Z,7.90
2023-02-03T14:57:16.391Z,7.72
2023-02-03T15:00:20.540Z,7.38
2023-02-03T15:03:09.133Z,9.27
2023-02-03T15:05:47.878Z,9.38
2023-02-03T15:08:42.272Z,11.13
2023-02-03T15:11:28.424Z,12.48
2023-02-03T15:14:21.781Z,13.45
2023-02-03T15:17:08.105Z,12.93
2023-02-03T15:19:41.631Z,14.15
2023-02-03T15:22:30.491Z,14.80
2023-02-03T15:25:04.318Z,17.77
2023-02-03T15:27:33.334Z,17.75
2023-02-03T15:30:19.307Z,17.08
2023-02-03T15:33:09.165Z,17.08
2023-02-03T15:35:40.264Z,17.52
2023-02-03T15:38:16.194Z,16.17
2023-02-03T15:40:47.805Z,16.60
2023-02-03T15:43:39.271Z,12.00
2023-02-03T15:46:45.897Z,11.48
2023-02-03T15:49:20.798Z,9.98
2023-02-03T15:52:05.339Z,10.07
2023-02-03T15:54:41.745Z,11.65
2023-02-03T15:57:25.904Z,12.75
2023-02-03T16:00:05.471Z,12.23
2023-02-03T16:02:46.101Z,16.38
2023-02-03T16:05:22.770Z,20.55
2023-02-03T16:07:55.305Z,19.42
2023-02-03T16:10:31.124Z,21.27
2023-02-03T16:13:22.655Z,20.77
2023-02-03T16:16:21.461Z,19.48
2023-02-03T16:19:07.813Z,18.08
2023-02-03T16:21:58.027Z,17.17
2023-02-03T16:24:41.052Z,16.02
2023-02-03T16:27:30.752Z,16.58
2023-02-03T16:30:26.722Z,18.20
2023-02-03T16:33:32.896Z,17.23
2023-02-03T16:36:28.889Z,19.10
2023-02-03T16:39:15.560Z,20.88
2023-02-03T16:42:02.478Z,21.50
2023-02-03T16:44:49.304Z,21.25
2023-02-03T16:47:44.397Z,19.40
2023-02-03T16:50:41.354Z,18.63
2023-02-03T16:53:15.638Z,17.58
2023-02-03T16:55:44.060Z,15.70
2023-02-03T16:58:12.970Z,16.75
2023-02-03T17:00:44.392Z,15.45
2023-02-03T17:03:14.793Z,19.33
2023-02-03T17:05:43.685Z,17.45
2023-02-03T17:08:12.287Z,23.80
2023-02-03T17:10:41.670Z,21.25
2023-02-03T17:13:11.520Z,23.48
2023-02-03T17:15:45.400Z,24.38
2023-02-03T17:18:15.133Z,22.95
2023-02-03T17:20:44.950Z,24.52
2023-02-03T17:23:13.288Z,24.85
2023-02-03T17:25:41.405Z,25.10
2023-02-03T17:28:11.160Z,23.95
2023-02-03T17:30:39.679Z,23.70
2023-02-03T17:33:14.627Z,22.95
2023-02-03T17:35:45.499Z,21.40
2023-02-03T17:38:14.609Z,23.63
2023-02-03T17:54:56.063Z,18.52
2023-02-03T17:57:27.081Z,18.23
2023-02-03T18:00:01.966Z,13.75
2023-02-03T18:02:54.403Z,12.85
2023-02-03T18:05:22.229Z,12.25
2023-02-03T18:07:52.218Z,8.65
2023-02-03T18:10:20.593Z,6.85
2023-02-03T18:12:52.689Z,6.75
2023-02-03T18:15:21.068Z,6.63
2023-02-03T18:18:05.367Z,7.25
2023-02-03T18:20:35.155Z,12.10
2023-02-03T18:23:08.796Z,13.75
2023-02-03T18:25:36.690Z,15.40
2023-02-03T18:28:06.541Z,13.32
2023-02-03T18:30:34.741Z,14.55
2023-02-03T18:33:03.966Z,11.43
2023-02-03T18:35:33.594Z,8.35
2023-02-03T18:38:03.177Z,7.72
2023-02-03T18:40:31.636Z,8.40
2023-02-03T18:43:02.397Z,9.00
2023-02-03T18:45:37.467Z,8.00
2023-02-03T18:48:07.201Z,7.10
2023-02-03T18:50:43.320Z,7.10
2023-02-03T18:53:11.476Z,6.30
2023-02-03T18:55:42.686Z,6.40
2023-02-03T18:58:12.444Z,6.90
2023-02-03T19:00:40.486Z,7.40
2023-02-03T19:03:29.661Z,7.45
2023-02-03T19:06:02.466Z,6.88
2023-02-03T19:08:30.814Z,7.43
2023-02-03T19:11:04.540Z,7.38
2023-02-03T19:13:37.672Z,7.93
2023-02-03T19:16:29.112Z,7.10
2023-02-03T19:18:58.388Z,7.20
2023-02-03T19:21:26.848Z,7.72
2023-02-03T19:23:55.208Z,8.13
2023-02-03T19:26:27.951Z,8.70
2023-02-03T19:28:57.552Z,8.60
2023-02-03T19:31:42.070Z,10.02
2023-02-03T19:34:11.632Z,11.32
2023-02-03T19:36:41.284Z,10.18
2023-02-03T19:39:11.164Z,10.05
2023-02-03T19:41:45.673Z,11.27
2023-02-03T19:44:22.417Z,10.27
2023-02-03T19:46:53.828Z,9.90
2023-02-03T19:49:22.134Z,9.35
2023-02-03T19:51:58.425Z,11.48
2023-02-03T19:54:30.568Z,10.50
2023-02-03T19:56:58.743Z,10.93
2023-02-03T19:59:27.291Z,12.13
2023-02-03T20:01:56.629Z,11.93
2023-02-03T20:04:28.377Z,11.13
2023-02-03T20:06:56.211Z,11.05
2023-02-03T20:09:24.427Z,11.32
2023-02-03T20:11:52.447Z,12.65
2023-02-03T20:14:21.086Z,13.18
2023-02-03T20:16:51.271Z,12.50
2023-02-03T20:19:19.597Z,14.73
2023-02-03T20:21:47.764Z,12.15
2023-02-03T20:24:34.073Z,12.50
2023-02-03T20:27:06.423Z,11.13
2023-02-03T20:29:39.086Z,11.25
2023-02-03T20:32:09.864Z,12.43
2023-02-03T20:34:39.841Z,12.88
2023-02-03T20:37:08.647Z,14.13
2023-02-03T20:39:38.388Z,15.27
2023-02-03T20:42:14.641Z,15.43
2023-02-03T20:44:44.427Z,15.93
2023-02-03T20:47:17.370Z,16.42
2023-02-03T20:49:46.110Z,18.35
2023-02-03T20:52:16.256Z,18.65
2023-02-03T20:54:48.804Z,18.38
2023-02-03T20:57:18.637Z,20.88
2023-02-03T20:59:47.107Z,21.20
2023-02-03T21:02:18.779Z,22.20
2023-02-03T21:04:59.052Z,22.00
2023-02-03T21:07:30.171Z,23.05
2023-02-03T21:09:59.326Z,22.98
2023-02-03T21:12:28.661Z,21.25
2023-02-03T21:15:33.964Z,21.42
2023-02-03T21:18:02.729Z,19.83
2023-02-03T21:20:33.106Z,18.33
2023-02-03T21:23:03.111Z,18.30
2023-02-03T21:25:32.707Z,20.42
2023-02-03T21:28:01.016Z,20.45
2023-02-03T21:30:34.583Z,19.30
2023-02-03T21:33:29.780Z,17.88
2023-02-03T21:35:58.566Z,18.05
2023-02-03T21:38:33.192Z,17.92
2023-02-03T21:41:02.244Z,16.42
2023-02-03T21:43:30.806Z,16.67
2023-02-03T21:45:59.081Z,16.75
2023-02-03T21:48:28.885Z,17.25
2023-02-03T21:51:00.966Z,16.38
2023-02-03T21:53:35.896Z,15.93
2023-02-03T21:56:18.451Z,17.10
2023-02-03T21:58:47.649Z,17.27
2023-02-03T22:01:43.632Z,16.65
2023-02-03T22:04:12.250Z,14.15
2023-02-03T22:06:49.270Z,16.92
2023-02-03T22:09:20.077Z,16.42
2023-02-03T22:12:08.233Z,17.75
2023-02-03T22:14:39.158Z,17.13
2023-02-03T22:17:07.520Z,17.17
2023-02-03T22:19:35.477Z,17.20
2023-02-03T22:22:03.357Z,17.63
2023-02-03T22:24:31.271Z,18.20
2023-02-03T22:27:00.416Z,17.23
2023-02-03T22:29:29.419Z,17.58
2023-02-03T22:31:58.600Z,16.85
2023-02-03T22:34:27.252Z,18.88
2023-02-03T22:36:56.146Z,16.80
2023-02-03T22:39:28.301Z,17.40
2023-02-03T22:41:57.049Z,17.15
2023-02-03T22:44:24.985Z,18.25
2023-02-03T22:46:53.042Z,17.80
2023-02-03T22:49:29.376Z,17.27
2023-02-03T22:51:58.962Z,18.52
2023-02-03T22:54:27.175Z,20.05
2023-02-03T22:57:01.540Z,18.35
2023-02-03T23:00:03.706Z,17.13
2023-02-03T23:02:35.419Z,19.48
2023-02-03T23:05:08.886Z,19.17
2023-02-03T23:07:38.462Z,17.38
2023-02-03T23:10:10.175Z,18.42
2023-02-03T23:12:40.921Z,16.40
2023-02-03T23:15:09.973Z,14.43
2023-02-03T23:17:38.422Z,18.00
2023-02-03T23:20:09.935Z,14.45
2023-02-03T23:22:38.508Z,16.35
2023-02-03T23:25:07.107Z,17.10
2023-02-03T23:27:35.504Z,17.10
2023-02-03T23:30:05.400Z,17.63
2023-02-03T23:32:34.240Z,18.17
2023-02-03T23:35:21.673Z,17.35
2023-02-03T23:37:52.159Z,17.38
2023-02-03T23:40:20.771Z,18.40
2023-02-03T23:42:50.570Z,19.83
2023-02-03T23:45:19.601Z,18.35
2023-02-03T23:47:47.525Z,19.98
2023-02-03T23:50:17.269Z,19.13
2023-02-03T23:53:09.709Z,18.73
2023-02-03T23:55:37.656Z,20.10
2023-02-03T23:58:06.469Z,19.90
